createdAt,value
2022-09-10T00:01:10.487Z,24.7
2022-09-10T00:03:31.446Z,24.6
2022-09-10T00:06:06.211Z,24.8
2022-09-10T00:08:27.764Z,24.8
2022-09-10T00:10:42.569Z,24.6
2022-09-10T00:12:57.885Z,24.8
2022-09-10T00:15:12.588Z,24.8
2022-09-10T00:17:29.033Z,24.5
2022-09-10T00:19:43.964Z,24.8
2022-09-10T00:22:05.149Z,24.6
2022-09-10T00:24:25.938Z,24.6
2022-09-10T00:26:46.846Z,24.6
2022-09-10T00:29:07.760Z,24.4
2022-09-10T00:31:28.502Z,24.6
2022-09-10T00:34:02.076Z,24.9
2022-09-10T00:36:22.672Z,24.6
2022-09-10T00:38:43.427Z,24.6
2022-09-10T00:41:04.166Z,24.6
2022-09-10T00:43:24.872Z,24.7
2022-09-10T00:45:39.770Z,24.8
2022-09-10T00:47:55.388Z,24.7
2022-09-10T00:50:16.270Z,24.6
2022-09-10T00:52:39.746Z,24.6
2022-09-10T00:54:51.574Z,24.6
2022-09-10T00:57:06.399Z,24.6
2022-09-10T00:59:21.155Z,24.7
2022-09-10T01:01:36.181Z,24.7
2022-09-10T01:03:56.986Z,24.8
2022-09-10T01:06:18.034Z,24.7
2022-09-10T01:08:32.606Z,24.6
2022-09-10T01:10:47.764Z,24.5
2022-09-10T01:13:08.502Z,24.5
2022-09-10T01:15:23.349Z,24.6
2022-09-10T01:17:38.164Z,24.8
2022-09-10T01:19:53.032Z,24.4
2022-09-10T01:22:13.795Z,24.6
2022-09-10T01:24:37.766Z,24.5
2022-09-10T01:26:52.586Z,24.4
2022-09-10T01:29:12.822Z,24.6
2022-09-10T01:31:34.167Z,24.5
2022-09-10T01:33:54.645Z,24.8
2022-09-10T01:36:03.770Z,24.8
2022-09-10T01:38:24.972Z,24.6
2022-09-10T01:40:45.608Z,24.6
2022-09-10T01:43:06.361Z,24.4
2022-09-10T01:45:27.100Z,24.3
2022-09-10T01:47:41.898Z,24.5
2022-09-10T01:50:37.446Z,24.4
2022-09-10T01:52:56.514Z,24.6
2022-09-10T01:55:07.104Z,24.6
2022-09-10T01:57:21.842Z,24.6
2022-09-10T01:59:36.740Z,24.6
2022-09-10T02:02:12.069Z,24.5
2022-09-10T02:04:46.506Z,24.6
2022-09-10T02:07:08.314Z,24.4
2022-09-10T02:09:23.418Z,24.5
2022-09-10T02:11:59.010Z,24.7
2022-09-10T02:14:13.449Z,24.5
2022-09-10T02:16:38.523Z,24.4
2022-09-10T02:18:44.511Z,24.6
2022-09-10T02:21:04.505Z,24.7
2022-09-10T02:23:18.857Z,24.6
2022-09-10T02:25:39.139Z,24.4
2022-09-10T02:28:00.502Z,24.6
2022-09-10T02:30:35.640Z,24.6
2022-09-10T02:32:50.461Z,24.5
2022-09-10T02:35:28.615Z,24.7
2022-09-10T02:37:44.060Z,24.6
2022-09-10T02:40:10.016Z,24.6
2022-09-10T02:42:34.856Z,24.5
2022-09-10T02:44:54.873Z,24.6
2022-09-10T02:47:09.782Z,24.6
2022-09-10T02:49:24.691Z,24.3
2022-09-10T02:51:39.444Z,24.3
2022-09-10T02:53:55.092Z,24.4
2022-09-10T02:56:09.493Z,24.6
2022-09-10T02:58:24.550Z,24.6
2022-09-10T03:02:27.990Z,24.1
2022-09-10T03:04:49.951Z,24.6
2022-09-10T03:07:04.870Z,24.6
2022-09-10T03:09:39.965Z,24.5
2022-09-10T03:11:54.868Z,24.4
2022-09-10T03:14:15.606Z,24.3
2022-09-10T03:16:30.523Z,24.4
2022-09-10T03:18:49.211Z,24.5
2022-09-10T03:21:00.111Z,24.5
2022-09-10T03:23:15.071Z,24.5
2022-09-10T03:25:50.445Z,24.4
2022-09-10T03:28:05.264Z,24.4
2022-09-10T03:30:40.933Z,24.4
2022-09-10T03:32:55.719Z,24.4
2022-09-10T03:35:16.937Z,24.3
2022-09-10T03:38:01.843Z,24.4
2022-09-10T03:40:28.007Z,24.4
2022-09-10T03:42:42.744Z,24.6
2022-09-10T03:45:18.225Z,24.5
2022-09-10T03:47:39.160Z,24.5
2022-09-10T03:49:58.907Z,24.4
2022-09-10T03:52:29.724Z,24.4
2022-09-10T03:54:31.438Z,24.5
2022-09-10T03:57:08.735Z,24.5
2022-09-10T03:59:23.603Z,24.4
2022-09-10T04:01:58.785Z,24.5
2022-09-10T04:04:34.220Z,24.3
2022-09-10T04:07:28.275Z,24.4
2022-09-10T04:09:53.130Z,24.5
2022-09-10T04:12:00.073Z,24.4
2022-09-10T04:14:35.286Z,24.4
2022-09-10T04:16:50.142Z,24.3
2022-09-10T04:19:10.836Z,24.3
2022-09-10T04:21:32.130Z,24.3
2022-09-10T04:23:52.557Z,24.4
2022-09-10T04:26:07.042Z,24.4
2022-09-10T04:28:42.447Z,24.4
2022-09-10T04:30:57.535Z,24.6
2022-09-10T04:33:12.263Z,24.4
2022-09-10T04:35:50.280Z,24.4
2022-09-10T04:38:11.256Z,24.4
2022-09-10T04:40:28.483Z,24.4
2022-09-10T04:42:52.057Z,24.4
2022-09-10T04:45:06.844Z,24.3
2022-09-10T04:47:21.036Z,24.3
2022-09-10T04:49:43.843Z,24.3
2022-09-10T04:52:36.714Z,24.3
2022-09-10T04:54:51.687Z,24.3
2022-09-10T04:57:06.335Z,24.5
2022-09-10T04:59:30.107Z,24.3
2022-09-10T05:01:45.124Z,24.5
2022-09-10T05:04:25.751Z,24.6
2022-09-10T05:07:01.217Z,24.4
2022-09-10T05:09:38.034Z,24.3
2022-09-10T05:11:53.456Z,24.3
2022-09-10T05:14:14.916Z,24.3
2022-09-10T05:16:50.368Z,24.3
2022-09-10T05:19:08.461Z,24.3
2022-09-10T05:21:24.655Z,24.4
2022-09-10T05:23:46.167Z,24.1
2022-09-10T05:26:25.225Z,24.3
2022-09-10T05:28:40.303Z,24.3
2022-09-10T05:31:05.468Z,24.3
2022-09-10T05:33:46.395Z,24.3
2022-09-10T05:36:01.227Z,24.3
2022-09-10T05:38:16.297Z,24.3
2022-09-10T05:40:50.264Z,24.4
2022-09-10T05:43:09.930Z,24.4
2022-09-10T05:45:23.827Z,24.5
2022-09-10T05:47:44.794Z,24.4
2022-09-10T05:50:33.595Z,24.4
2022-09-10T05:53:08.787Z,24.5
2022-09-10T05:55:23.667Z,24.1
2022-09-10T05:57:38.512Z,24.4
2022-09-10T05:59:53.390Z,24.4
2022-09-10T06:02:30.405Z,24.4
2022-09-10T06:04:44.440Z,24.3
2022-09-10T06:06:59.996Z,24.4
2022-09-10T06:09:40.359Z,24.4
2022-09-10T06:11:54.527Z,24.3
2022-09-10T06:14:30.369Z,24.3
2022-09-10T06:16:45.298Z,24.4
2022-09-10T06:19:06.480Z,24.4
2022-09-10T06:21:28.353Z,24.4
2022-09-10T06:23:47.228Z,24.4
2022-09-10T06:26:08.003Z,24.4
2022-09-10T06:28:44.829Z,24.5
2022-09-10T06:31:19.698Z,24.6
2022-09-10T06:33:55.122Z,24.7
2022-09-10T06:36:30.067Z,24.6
2022-09-10T06:38:45.118Z,24.5
2022-09-10T06:40:59.936Z,24.5
2022-09-10T06:43:21.255Z,24.6
2022-09-10T06:45:36.557Z,24.9
2022-09-10T06:49:00.233Z,24.8
2022-09-10T06:51:15.100Z,24.8
2022-09-10T06:53:29.893Z,24.8
2022-09-10T06:55:44.766Z,24.8
2022-09-10T06:57:59.775Z,24.9
2022-09-10T07:00:14.450Z,24.8
2022-09-10T07:02:29.351Z,24.8
2022-09-10T07:04:44.134Z,24.8
2022-09-10T07:06:58.910Z,25
2022-09-10T07:09:13.729Z,25
2022-09-10T07:11:28.674Z,24.9
2022-09-10T07:13:43.499Z,25.3
2022-09-10T07:15:58.605Z,25.3
2022-09-10T07:18:13.435Z,25
2022-09-10T07:20:28.512Z,25.5
2022-09-10T07:22:43.476Z,25.1
2022-09-10T07:24:58.212Z,25.3
2022-09-10T07:27:13.261Z,25.2
2022-09-10T07:29:28.125Z,25.3
2022-09-10T07:31:45.397Z,25.2
2022-09-10T07:33:58.100Z,25.4
2022-09-10T07:36:13.673Z,25.3
2022-09-10T07:38:28.549Z,25.5
2022-09-10T07:40:43.739Z,25.6
2022-09-10T07:42:58.730Z,25.5
2022-09-10T07:45:13.709Z,25.9
2022-09-10T07:47:28.970Z,26.1
2022-09-10T07:49:43.867Z,26.3
2022-09-10T07:52:00.065Z,26.3
2022-09-10T07:54:13.769Z,25.9
2022-09-10T07:56:28.809Z,26.3
2022-09-10T07:58:43.863Z,26.3
2022-09-10T08:00:59.025Z,26.5
2022-09-10T08:03:13.890Z,26.4
2022-09-10T08:05:29.408Z,26.4
2022-09-10T08:07:44.074Z,26.6
2022-09-10T08:09:58.852Z,26.5
2022-09-10T08:12:13.904Z,26.4
2022-09-10T08:14:28.808Z,26.6
2022-09-10T08:16:44.618Z,26.6
2022-09-10T08:18:58.729Z,26.7
2022-09-10T08:21:14.691Z,26.7
2022-09-10T08:23:28.933Z,27.3
2022-09-10T08:25:44.005Z,26.7
2022-09-10T08:27:58.694Z,25.9
2022-09-10T08:30:13.603Z,26.6
2022-09-10T08:32:28.630Z,26.7
2022-09-10T08:34:43.532Z,26.8
2022-09-10T08:36:58.663Z,26.8
2022-09-10T08:39:13.469Z,26.8
2022-09-10T08:41:28.583Z,26.6
2022-09-10T08:43:43.458Z,26.5
2022-09-10T08:45:58.512Z,26.5
2022-09-10T08:48:13.332Z,26.6
2022-09-10T08:50:28.087Z,26.6
2022-09-10T08:52:43.465Z,26.6
2022-09-10T08:54:58.137Z,26.8
2022-09-10T08:57:13.137Z,26.6
2022-09-10T08:59:28.019Z,26.5
2022-09-10T09:02:38.070Z,26.1
2022-09-10T09:04:47.777Z,26.4
2022-09-10T09:07:02.562Z,26.4
2022-09-10T09:09:17.407Z,26.6
2022-09-10T09:11:32.172Z,26.6
2022-09-10T09:13:47.089Z,26.6
2022-09-10T09:16:01.994Z,26.8
2022-09-10T09:18:18.399Z,26.6
2022-09-10T09:20:31.617Z,26.6
2022-09-10T09:22:46.539Z,26.6
2022-09-10T09:25:14.226Z,26.6
2022-09-10T09:27:28.959Z,26.3
2022-09-10T09:29:43.755Z,26.4
2022-09-10T09:31:58.770Z,26.4
2022-09-10T09:34:13.526Z,26.3
2022-09-10T09:36:28.346Z,26.4
2022-09-10T09:38:43.342Z,26.2
2022-09-10T09:40:58.059Z,26.4
2022-09-10T09:43:12.938Z,26.1
2022-09-10T09:45:27.894Z,26.2
2022-09-10T09:47:42.575Z,25.9
2022-09-10T09:49:57.353Z,26.2
2022-09-10T09:52:12.386Z,26.3
2022-09-10T09:55:15.856Z,26.2
2022-09-10T09:57:30.428Z,26
2022-09-10T09:59:45.541Z,26.3
2022-09-10T10:02:00.376Z,26.2
2022-09-10T10:04:15.110Z,26.4
2022-09-10T10:06:30.582Z,26.4
2022-09-10T10:08:45.386Z,26.4
2022-09-10T10:11:00.510Z,26.7
2022-09-10T10:13:15.377Z,26.8
2022-09-10T10:15:30.491Z,26.9
2022-09-10T10:17:45.224Z,26.9
2022-09-10T10:20:00.308Z,27.1
2022-09-10T10:22:15.249Z,27.2
2022-09-10T10:24:30.100Z,27
2022-09-10T10:26:45.044Z,26.9
2022-09-10T10:29:00.060Z,27.3
2022-09-10T10:31:15.036Z,27.1
2022-09-10T10:33:29.805Z,27.3
2022-09-10T10:35:44.990Z,27.2
2022-09-10T10:37:59.878Z,27.1
2022-09-10T10:40:14.949Z,27.1
2022-09-10T10:42:29.804Z,27.3
2022-09-10T10:44:44.569Z,27.3
2022-09-10T10:46:59.656Z,27.4
2022-09-10T10:49:14.465Z,27.2
2022-09-10T10:51:29.567Z,27.2
2022-09-10T10:53:44.391Z,27.1
2022-09-10T10:55:59.513Z,27.2
2022-09-10T10:58:14.312Z,27.1
2022-09-10T11:00:29.636Z,27.2
2022-09-10T11:02:44.398Z,27.4
2022-09-10T11:04:59.341Z,27.2
2022-09-10T11:07:14.239Z,27.1
2022-09-10T11:09:29.066Z,27.1
2022-09-10T11:11:44.192Z,26.9
2022-09-10T11:13:58.911Z,26.9
2022-09-10T11:16:14.343Z,27.3
2022-09-10T11:18:28.869Z,27.1
2022-09-10T11:20:57.747Z,27.1
2022-09-10T11:23:12.679Z,27.1
2022-09-10T11:25:27.744Z,26.8
2022-09-10T11:27:42.548Z,26.6
2022-09-10T11:29:57.281Z,26.7
2022-09-10T11:32:12.355Z,25.6
2022-09-10T11:34:27.220Z,25.6
2022-09-10T11:36:42.263Z,25.6
2022-09-10T11:38:57.178Z,25.5
2022-09-10T11:41:12.264Z,25.5
2022-09-10T11:43:27.193Z,25.8
2022-09-10T11:45:42.257Z,25.6
2022-09-10T11:47:57.021Z,25.5
2022-09-10T11:50:11.833Z,25.4
2022-09-10T11:52:27.030Z,25.3
2022-09-10T11:54:41.807Z,25.6
2022-09-10T11:56:56.990Z,25.6
2022-09-10T11:59:11.797Z,25.5
2022-09-10T12:01:26.917Z,25.4
2022-09-10T12:03:41.782Z,25.3
2022-09-10T12:05:56.832Z,25.5
2022-09-10T12:08:11.729Z,25.2
2022-09-10T12:10:26.758Z,25.4
2022-09-10T12:12:41.425Z,25.3
2022-09-10T12:14:56.384Z,25.5
2022-09-10T12:17:11.450Z,25.6
2022-09-10T12:19:26.313Z,25.6
2022-09-10T12:21:41.312Z,25.6
2022-09-10T12:23:56.260Z,25.5
2022-09-10T12:26:11.291Z,25.6
2022-09-10T12:28:25.735Z,25.9
2022-09-10T12:30:41.295Z,26.6
2022-09-10T12:32:56.104Z,27.4
2022-09-10T12:35:10.511Z,28.1
2022-09-10T12:37:25.985Z,25.4
2022-09-10T12:39:41.155Z,25.6
2022-09-10T12:41:56.366Z,25.7
2022-09-10T12:44:11.350Z,25.8
2022-09-10T12:46:26.580Z,25.7
2022-09-10T12:48:41.588Z,25.8
2022-09-10T12:50:56.670Z,25.6
2022-09-10T12:53:12.041Z,25.4
2022-09-10T12:55:26.441Z,25.6
2022-09-10T12:57:41.387Z,25.6
2022-09-10T15:02:21.590Z,25.3
2022-09-10T15:04:36.637Z,25.8
2022-09-10T15:06:51.695Z,25.9
2022-09-10T15:09:06.622Z,25.9
2022-09-10T15:11:21.526Z,25.8
2022-09-10T15:13:36.583Z,25.9
2022-09-10T15:15:53.794Z,25.9
2022-09-10T15:18:06.596Z,25.9
2022-09-10T15:20:24.716Z,25.8
2022-09-10T15:22:36.516Z,25.9
2022-09-10T15:25:10.348Z,25.9
2022-09-10T15:27:21.955Z,25.8
2022-09-10T15:29:37.396Z,26
2022-09-10T15:31:52.431Z,26
2022-09-10T15:34:07.391Z,25.9
2022-09-10T15:36:21.730Z,25.9
2022-09-10T15:38:37.470Z,25.8
2022-09-10T15:40:53.291Z,25.7
2022-09-10T15:43:07.565Z,25.8
2022-09-10T15:45:22.875Z,25.8
2022-09-10T15:47:44.403Z,26
2022-09-10T15:49:52.367Z,25.9
2022-09-10T15:52:08.201Z,25.6
2022-09-10T15:54:22.910Z,25.8
2022-09-10T15:56:38.373Z,25.8
2022-09-10T15:58:52.306Z,25.7
2022-09-10T16:01:08.026Z,25.9
2022-09-10T16:03:23.045Z,26.1
2022-09-10T16:05:38.176Z,25.8
2022-09-10T16:08:13.723Z,25.9
2022-09-10T16:10:28.537Z,25.8
2022-09-10T16:12:43.435Z,25.8
2022-09-10T16:14:58.287Z,25.8
2022-09-10T16:17:13.153Z,25.9
2022-09-10T16:19:28.008Z,25.9
2022-09-10T16:21:42.965Z,25.6
2022-09-10T16:23:57.940Z,25.9
2022-09-10T16:26:19.008Z,25.8
2022-09-10T16:28:32.979Z,25.8
2022-09-10T16:30:53.744Z,25.8
2022-09-10T16:33:09.211Z,25.7
2022-09-10T16:35:23.973Z,25.9
2022-09-10T16:37:38.787Z,25.8
2022-09-10T16:39:53.867Z,25.6
2022-09-10T16:42:08.663Z,25.5
2022-09-10T16:44:23.440Z,25.6
2022-09-10T16:46:44.489Z,25.3
2022-09-10T16:49:05.548Z,25.3
2022-09-10T16:51:26.539Z,25.1
2022-09-10T16:54:00.566Z,25.1
2022-09-10T16:56:15.264Z,25.3
2022-09-10T16:58:36.237Z,25.1
2022-09-10T17:00:50.939Z,25.1
2022-09-10T17:03:05.771Z,25
2022-09-10T17:05:20.622Z,25.1
2022-09-10T17:07:35.307Z,25.1
2022-09-10T17:09:50.137Z,24.9
2022-09-10T17:12:04.390Z,25.1
2022-09-10T17:14:19.815Z,24.9
2022-09-10T17:16:34.740Z,25.1
2022-09-10T17:18:49.425Z,25
2022-09-10T17:21:10.659Z,25
2022-09-10T17:23:25.032Z,25
2022-09-10T17:26:39.346Z,24.8
2022-09-10T17:28:54.106Z,24.8
2022-09-10T17:31:14.867Z,24.8
2022-09-10T17:33:36.001Z,24.6
2022-09-10T17:35:51.013Z,24.9
2022-09-10T17:38:05.817Z,24.8
2022-09-10T17:40:20.687Z,24.9
2022-09-10T17:42:35.474Z,24.9
2022-09-10T17:44:49.792Z,24.9
2022-09-10T17:47:05.328Z,24.8
2022-09-10T17:49:20.622Z,24.9
2022-09-10T17:51:34.905Z,24.7
2022-09-10T17:53:49.783Z,24.9
2022-09-10T17:56:04.737Z,25.1
2022-09-10T17:58:19.948Z,24.8
2022-09-10T18:00:34.507Z,24.9
2022-09-10T18:02:49.252Z,25.1
2022-09-10T18:05:09.997Z,25.3
2022-09-10T18:07:45.290Z,25.2
2022-09-10T18:10:00.176Z,25.1
2022-09-10T18:12:15.194Z,24.8
2022-09-10T18:14:35.935Z,24.9
2022-09-10T18:16:56.734Z,24.9
2022-09-10T18:19:30.499Z,24.8
2022-09-10T18:21:45.887Z,25.1
2022-09-10T18:24:06.639Z,24.8
2022-09-10T18:26:36.320Z,24.9
2022-09-10T18:28:56.423Z,25.2
2022-09-10T18:31:18.151Z,25.1
2022-09-10T18:33:32.079Z,25.2
2022-09-10T18:35:52.242Z,25.1
2022-09-10T18:38:13.023Z,25.1
2022-09-10T18:40:34.015Z,25.1
2022-09-10T18:42:48.569Z,25.1
2022-09-10T18:45:03.432Z,25
2022-09-10T18:47:34.509Z,24.9
2022-09-10T21:02:22.515Z,23.6
2022-09-10T21:04:36.775Z,24.4
2022-09-10T21:06:52.194Z,24.4
2022-09-10T21:09:07.319Z,24.6
2022-09-10T21:11:22.025Z,24.4
2022-09-10T21:13:41.025Z,24.4
2022-09-10T21:15:55.807Z,24.4
2022-09-10T21:18:10.659Z,24.6
2022-09-10T21:20:33.820Z,24.6
2022-09-10T21:22:40.472Z,24.4
2022-09-10T21:24:55.267Z,24.4
2022-09-10T21:27:10.110Z,24.4
2022-09-10T21:29:25.088Z,24.5
2022-09-10T21:31:40.048Z,24.3
2022-09-10T21:33:56.708Z,24.6
2022-09-10T21:36:13.526Z,24.2
2022-09-10T21:38:29.078Z,24.3
2022-09-10T21:40:44.043Z,24.3
2022-09-10T21:42:58.884Z,24.4
2022-09-10T21:45:13.747Z,24.5
2022-09-10T21:47:28.738Z,24.4
2022-09-10T21:49:43.597Z,24.1
2022-09-10T21:51:58.590Z,24.4
2022-09-10T21:54:13.521Z,24.3
2022-09-10T21:56:28.455Z,24
2022-09-10T21:58:42.820Z,24.1
2022-09-10T22:00:57.755Z,24.4
2022-09-10T22:03:13.351Z,24.3
2022-09-10T22:05:28.381Z,24.2
2022-09-10T22:07:43.251Z,24.4
2022-09-10T22:09:58.163Z,24.3
2022-09-10T22:12:33.561Z,24.1
2022-09-10T22:14:48.243Z,24.2
2022-09-10T22:17:03.235Z,24.3
2022-09-10T22:19:18.188Z,24.3
2022-09-10T22:21:32.938Z,24
2022-09-10T22:23:48.010Z,24
2022-09-10T22:26:02.883Z,24.3
2022-09-10T22:28:17.787Z,24.1
2022-09-10T22:30:32.825Z,24.4
2022-09-10T22:32:50.147Z,23.8
2022-09-10T22:35:02.725Z,24.1
2022-09-10T22:37:17.058Z,24.2
2022-09-10T22:39:32.685Z,24.1
2022-09-10T22:41:47.579Z,24.3
2022-09-10T22:44:02.529Z,24.1
2022-09-10T22:46:18.265Z,24
2022-09-10T22:48:32.394Z,24
2022-09-10T22:50:47.386Z,23.9
2022-09-10T22:53:02.360Z,24.1
2022-09-10T22:55:17.387Z,24
2022-09-10T22:57:32.078Z,23.9
2022-09-10T22:59:46.537Z,23.9
2022-09-10T23:02:02.138Z,24.2
2022-09-10T23:04:17.165Z,24.2
2022-09-10T23:06:32.291Z,24.1
2022-09-10T23:08:48.176Z,23.9
2022-09-10T23:11:02.837Z,24.1
2022-09-10T23:13:17.507Z,24.1
2022-09-10T23:15:32.057Z,24.1
2022-09-10T23:18:01.845Z,24.1
2022-09-10T23:20:09.120Z,24.1
2022-09-10T23:22:24.018Z,23.8
2022-09-10T23:24:39.181Z,23.7
2022-09-10T23:26:54.062Z,23.9
2022-09-10T23:29:09.324Z,23.9
2022-09-10T23:31:24.090Z,24.1
2022-09-10T23:33:38.384Z,24
2022-09-10T23:36:12.760Z,23.9
2022-09-10T23:38:27.061Z,23.9
2022-09-10T23:40:51.669Z,23.9
